aviador You're here:

KCMX Decoded Metar

HANCOCK in MI, USA
Report Time2018-07-19 18:53:00
UTC Time2018-07-19 19:23:17
Flight Rules vfr VFR
Wind080° at 09 kt
W.Decomp.*RWY 07: 8.8 kt HW 1.9 kt RCW
RWY 13: 6.0 kt HW 6.7 kt LCW
W.Rank080° ranks 10
Current wind is above 080° avg. (6.7)
Visibility9999 m
Phenomena:N/A
Clouds:N/A
Expected CloudBase > 4,000 ft AGL from Temp-Dew spread
CeilingNone
Temp25°C (ISA +12)
Dew Point15°C (54% RH)
AAT23.4°C
QNH1013 hPa
Density Alt2,703 ft
Elevation1,070 ft
Report Wrong Elevation
Raw Report
KCMX 191853Z AUTO 08009KT 10SM CLR 25/15 A2991 RMK AO2 SLP125
T02500150=

Extra information for KCMX:More info

Metar Taf Metar & Taf Last 4 Metars F.Rules Stats Wind Profile Meteogram Temp Stats Airport Information Weather charts Add Link Nearby VenuesMetar ALERT Operation Metar Decoded Social comments

AIRNAV info for KCMX